Time;durP1;ratioP1;P1;durP2;ratioP2;P2;SDS_P1;SDS_P2;PMS_P1;PMS_P2;Temp;Humidity;BMP_temperature;BMP_pressure;BME280_temperature;BME280_humidity;BME280_pressure;Samples;Min_cycle;Max_cycle;Signal;HPM_P1;HPM_P2
2020/12/16 00:00:16;;;;;;;20.00;8.02;;;13.10;70.70;;;;;;6244074;28;20061;-73
2020/12/16 00:03:18;;;;;;;14.70;7.53;;;13.00;70.70;;;;;;6257388;28;20044;-72
2020/12/16 00:06:19;;;;;;;16.73;7.75;;;13.10;70.70;;;;;;6248590;28;20037;-73
2020/12/16 00:09:20;;;;;;;20.60;8.95;;;13.10;70.80;;;;;;6224408;28;20034;-72
2020/12/16 00:12:24;;;;;;;15.10;7.85;;;13.00;70.80;;;;;;6254564;28;20061;-73
2020/12/16 00:15:26;;;;;;;20.08;8.45;;;13.00;71.00;;;;;;6252372;28;20033;-73
2020/12/16 00:18:27;;;;;;;17.35;8.15;;;12.90;71.20;;;;;;6255118;28;20413;-71
2020/12/16 00:21:28;;;;;;;22.30;9.57;;;12.90;71.30;;;;;;6256999;28;20044;-74
2020/12/16 00:24:29;;;;;;;20.77;9.23;;;12.90;71.50;;;;;;6256361;28;20045;-72
2020/12/16 00:27:30;;;;;;;19.73;8.40;;;12.90;71.70;;;;;;6250251;28;20040;-72
2020/12/16 00:30:32;;;;;;;22.27;9.60;;;12.90;71.60;;;;;;6259590;28;20102;-72
2020/12/16 00:33:33;;;;;;;17.48;8.38;;;12.90;71.50;;;;;;6260386;28;20129;-72
2020/12/16 00:36:38;;;;;;;19.63;8.40;;;13.00;71.60;;;;;;6249222;28;20029;-74
2020/12/16 00:39:40;;;;;;;16.60;8.48;;;13.00;71.40;;;;;;6261184;28;20052;-72
2020/12/16 00:42:47;;;;;;;17.83;9.60;;;13.00;71.40;;;;;;6248391;28;20030;-72
2020/12/16 00:45:49;;;;;;;21.50;10.48;;;13.00;71.30;;;;;;6242812;28;20043;-73
2020/12/16 00:48:49;;;;;;;19.42;10.45;;;13.00;71.20;;;;;;6260807;28;20033;-73
2020/12/16 00:51:52;;;;;;;20.45;9.13;;;13.00;71.20;;;;;;6259573;28;20025;-72
2020/12/16 00:54:53;;;;;;;20.48;7.97;;;13.00;71.10;;;;;;6260646;28;20129;-72
2020/12/16 00:57:55;;;;;;;17.15;8.57;;;13.10;71.00;;;;;;6244791;28;20040;-72
2020/12/16 01:00:56;;;;;;;18.48;9.10;;;13.00;71.00;;;;;;6260395;28;20460;-72
2020/12/16 01:04:00;;;;;;;23.17;9.00;;;13.10;70.90;;;;;;6274044;28;20044;-73
2020/12/16 01:07:02;;;;;;;24.90;8.93;;;13.00;71.00;;;;;;6243879;28;20037;-73
2020/12/16 01:10:04;;;;;;;16.50;8.05;;;13.10;71.40;;;;;;6260086;28;20047;-72
2020/12/16 01:13:06;;;;;;;16.33;9.23;;;13.10;70.90;;;;;;6261485;28;20120;-73
2020/12/16 01:16:10;;;;;;;18.65;9.88;;;13.20;70.90;;;;;;6262258;28;20110;-72
2020/12/16 01:19:11;;;;;;;19.65;9.95;;;13.20;70.90;;;;;;6261845;28;20068;-72
2020/12/16 01:22:18;;;;;;;19.40;9.65;;;13.20;70.80;;;;;;6261885;28;20048;-73
2020/12/16 01:25:21;;;;;;;21.92;10.05;;;13.20;70.70;;;;;;6260536;28;20137;-73
2020/12/16 01:28:23;;;;;;;32.10;10.77;;;13.20;70.70;;;;;;6258991;28;20048;-73
2020/12/16 01:31:36;;;;;;;17.73;8.73;;;13.20;70.60;;;;;;6263306;28;20366;-73
2020/12/16 01:34:37;;;;;;;16.65;9.00;;;13.10;70.70;;;;;;6239478;28;20394;-73
2020/12/16 01:37:43;;;;;;;22.10;9.20;;;13.10;70.60;;;;;;6218233;28;20044;-73
2020/12/16 01:40:44;;;;;;;16.38;8.32;;;13.10;70.70;;;;;;6220120;28;20092;-73
2020/12/16 01:43:47;;;;;;;26.45;9.82;;;13.10;70.80;;;;;;6224106;28;20056;-73
2020/12/16 01:46:58;;;;;;;21.52;9.63;;;13.00;70.90;;;;;;6223156;28;20038;-73
2020/12/16 01:50:06;;;;;;;18.95;8.95;;;13.00;71.00;;;;;;6246716;28;20037;-72
2020/12/16 01:53:08;;;;;;;17.27;8.88;;;13.00;71.00;;;;;;6263549;28;20029;-72
2020/12/16 01:56:16;;;;;;;15.45;8.57;;;12.90;71.00;;;;;;6262229;28;20041;-75
2020/12/16 01:59:39;;;;;;;16.50;8.30;;;12.90;71.10;;;;;;6260561;28;20033;-72
2020/12/16 02:02:48;;;;;;;15.48;8.32;;;12.80;71.20;;;;;;6262741;28;20029;-72
2020/12/16 02:05:57;;;;;;;20.60;9.77;;;12.80;71.10;;;;;;6246787;28;20489;-72
2020/12/16 02:09:06;;;;;;;16.88;9.40;;;12.80;71.20;;;;;;6264614;28;20033;-72
2020/12/16 02:12:24;;;;;;;21.38;8.20;;;12.70;71.30;;;;;;6248953;28;20057;-73
2020/12/16 02:15:25;;;;;;;21.42;9.35;;;12.70;71.60;;;;;;6258227;28;20036;-72
2020/12/16 02:18:26;;;;;;;19.80;8.38;;;12.70;71.60;;;;;;6248509;28;20462;-72
2020/12/16 02:21:37;;;;;;;17.13;8.38;;;12.70;71.70;;;;;;6259359;28;20045;-72
2020/12/16 02:24:57;;;;;;;16.38;8.23;;;12.70;71.80;;;;;;6258404;28;20571;-72
2020/12/16 02:27:58;;;;;;;17.98;7.95;;;12.70;71.80;;;;;;6247328;28;20490;-72
2020/12/16 02:31:04;;;;;;;15.73;8.48;;;12.70;71.80;;;;;;6256938;28;20033;-72
2020/12/16 02:34:31;;;;;;;16.17;7.30;;;12.70;71.80;;;;;;6218591;28;20034;-72
2020/12/16 02:37:33;;;;;;;17.58;8.50;;;12.70;71.90;;;;;;6232206;28;20120;-72
2020/12/16 02:40:34;;;;;;;22.45;8.48;;;12.70;71.90;;;;;;6258721;28;20025;-72
2020/12/16 02:43:36;;;;;;;15.27;8.38;;;12.60;71.90;;;;;;6257980;28;20068;-73
2020/12/16 02:46:37;;;;;;;16.20;8.40;;;12.60;71.90;;;;;;6259329;28;20042;-72
2020/12/16 02:49:38;;;;;;;15.10;8.07;;;12.70;72.00;;;;;;6256106;28;20098;-72
2020/12/16 02:52:40;;;;;;;16.13;8.00;;;12.70;72.00;;;;;;6245657;28;20037;-72
2020/12/16 02:55:46;;;;;;;16.67;8.68;;;12.70;71.80;;;;;;6220278;28;20459;-72
2020/12/16 02:58:47;;;;;;;12.60;7.47;;;12.80;71.80;;;;;;6229738;28;20041;-73
2020/12/16 03:01:51;;;;;;;16.90;8.70;;;12.70;71.60;;;;;;6214413;28;20129;-72
2020/12/16 03:05:10;;;;;;;15.30;8.57;;;12.80;71.60;;;;;;6231395;28;20037;-73
2020/12/16 03:08:11;;;;;;;20.20;8.52;;;12.70;71.40;;;;;;6212355;28;20113;-72
2020/12/16 03:11:23;;;;;;;18.75;9.00;;;12.70;71.30;;;;;;6232960;28;20527;-73
2020/12/16 03:14:27;;;;;;;18.02;8.45;;;12.70;71.30;;;;;;6219828;28;20045;-73
2020/12/16 03:17:29;;;;;;;19.60;8.27;;;12.70;71.40;;;;;;6232452;28;20459;-73
2020/12/16 03:20:37;;;;;;;16.25;8.25;;;12.60;71.40;;;;;;6234106;28;20537;-72
2020/12/16 03:23:39;;;;;;;15.55;8.68;;;12.60;71.50;;;;;;6234036;28;20049;-73
2020/12/16 03:27:03;;;;;;;13.90;7.38;;;12.60;71.50;;;;;;6259666;28;20029;-72
2020/12/16 03:34:52;;;;;;;;;;;12.60;71.50;;;;;;6260762;28;20063;-73
2020/12/16 03:37:56;;;;;;;17.80;9.07;;;12.50;71.50;;;;;;6258462;28;19916;-73
2020/12/16 03:41:01;;;;;;;21.77;9.40;;;12.40;71.60;;;;;;6254577;28;20044;-73
2020/12/16 03:44:06;;;;;;;16.90;8.55;;;12.40;71.80;;;;;;6229758;28;20041;-73
2020/12/16 03:47:15;;;;;;;14.68;7.70;;;12.40;72.00;;;;;;6238889;28;20038;-73
2020/12/16 03:50:17;;;;;;;16.05;8.40;;;12.30;72.10;;;;;;6260905;28;20021;-73
2020/12/16 03:53:19;;;;;;;16.88;8.15;;;12.30;72.10;;;;;;6226127;28;20048;-73
2020/12/16 03:56:37;;;;;;;20.45;8.70;;;12.30;72.20;;;;;;6260458;28;20389;-73
2020/12/16 04:00:10;;;;;;;18.83;8.68;;;12.20;72.30;;;;;;6211555;28;20375;-74
2020/12/16 04:03:17;;;;;;;22.05;8.48;;;12.20;72.40;;;;;;6203436;28;20042;-73
2020/12/16 04:06:43;;;;;;;17.90;9.20;;;12.20;72.50;;;;;;6149587;28;20046;-73
2020/12/16 04:09:44;;;;;;;15.63;8.50;;;12.20;72.50;;;;;;6148731;28;20035;-73
2020/12/16 04:12:46;;;;;;;24.50;9.07;;;12.20;72.50;;;;;;6150383;28;20042;-73
2020/12/16 04:15:47;;;;;;;20.55;8.60;;;12.10;72.50;;;;;;6150288;28;20094;-73
2020/12/16 04:18:50;;;;;;;15.82;8.93;;;12.10;72.60;;;;;;6153498;28;20102;-73
2020/12/16 04:21:55;;;;;;;20.25;8.88;;;12.10;72.70;;;;;;6149985;28;20043;-73
2020/12/16 04:24:58;;;;;;;18.42;8.35;;;12.00;72.80;;;;;;6128909;28;20219;-73
2020/12/16 04:28:04;;;;;;;15.15;8.68;;;12.00;72.90;;;;;;6135074;28;20047;-73
2020/12/16 04:31:07;;;;;;;19.08;9.18;;;12.00;72.90;;;;;;6133313;28;20043;-73
2020/12/16 04:34:08;;;;;;;14.30;8.02;;;12.00;73.00;;;;;;6135595;28;20066;-73
2020/12/16 04:37:10;;;;;;;19.33;9.60;;;12.00;73.00;;;;;;6233299;28;20094;-73
2020/12/16 04:40:17;;;;;;;18.10;8.68;;;12.00;73.10;;;;;;6246527;28;20041;-73
2020/12/16 04:43:23;;;;;;;20.83;8.75;;;11.90;73.00;;;;;;6247765;28;20044;-73
2020/12/16 04:46:29;;;;;;;18.08;8.55;;;11.90;73.00;;;;;;6247677;28;20500;-74
2020/12/16 04:49:30;;;;;;;15.88;9.07;;;11.90;73.10;;;;;;6262756;28;20037;-73
2020/12/16 04:52:32;;;;;;;18.08;9.10;;;11.90;73.30;;;;;;6246847;28;20047;-72
2020/12/16 04:55:52;;;;;;;18.58;9.05;;;11.80;73.20;;;;;;6248768;28;20037;-72
2020/12/16 04:59:13;;;;;;;19.77;9.27;;;11.80;73.30;;;;;;6259907;28;20025;-72
2020/12/16 05:02:28;;;;;;;21.38;10.18;;;11.80;73.40;;;;;;6243827;28;20048;-71
2020/12/16 05:05:53;;;;;;;18.73;9.38;;;11.80;73.40;;;;;;6260176;28;20139;-73
2020/12/16 05:09:10;;;;;;;20.67;10.35;;;11.80;73.40;;;;;;6259005;28;20489;-73
2020/12/16 05:12:16;;;;;;;20.45;9.88;;;11.70;73.50;;;;;;6259137;28;20466;-72
2020/12/16 05:15:24;;;;;;;21.00;9.80;;;11.80;73.60;;;;;;6260431;28;20040;-73
2020/12/16 05:18:25;;;;;;;22.70;10.60;;;11.80;73.50;;;;;;6263096;28;20040;-73
2020/12/16 05:21:26;;;;;;;17.90;10.05;;;11.80;74.40;;;;;;6257377;28;20399;-73
2020/12/16 05:24:27;;;;;;;20.42;9.38;;;11.70;73.40;;;;;;6249276;28;20042;-73
2020/12/16 05:27:31;;;;;;;22.02;9.68;;;11.70;73.50;;;;;;6212758;28;20441;-73
2020/12/16 05:30:33;;;;;;;19.38;9.68;;;11.60;73.60;;;;;;6235920;28;20044;-73
2020/12/16 05:33:46;;;;;;;21.48;10.02;;;11.50;73.90;;;;;;6215817;28;20034;-73
2020/12/16 05:36:47;;;;;;;23.10;10.45;;;11.50;74.10;;;;;;6228718;28;20176;-72
2020/12/16 05:40:04;;;;;;;22.40;9.55;;;11.50;74.30;;;;;;6212981;28;20038;-72
2020/12/16 05:43:06;;;;;;;20.75;9.48;;;11.50;74.40;;;;;;6247997;28;20112;-72
2020/12/16 05:46:07;;;;;;;19.27;8.48;;;11.60;74.30;;;;;;6245790;28;20037;-72
2020/12/16 05:49:28;;;;;;;19.70;8.48;;;11.70;74.20;;;;;;6262070;28;20025;-72
2020/12/16 05:52:29;;;;;;;17.98;7.88;;;11.80;74.10;;;;;;6253869;28;20393;-73
2020/12/16 05:55:30;;;;;;;16.73;7.70;;;11.70;73.70;;;;;;6255285;28;20691;-72
2020/12/16 05:58:33;;;;;;;16.13;7.80;;;11.70;73.70;;;;;;6258273;28;20036;-72
2020/12/16 06:01:35;;;;;;;26.65;8.43;;;11.70;73.70;;;;;;6259123;28;20073;-73
2020/12/16 06:04:36;;;;;;;20.92;8.90;;;11.70;73.60;;;;;;6256174;28;20430;-73
2020/12/16 06:07:40;;;;;;;21.25;8.98;;;11.60;73.40;;;;;;6253988;28;20438;-72
2020/12/16 06:10:44;;;;;;;22.23;10.77;;;11.60;73.60;;;;;;6257154;28;20033;-73
2020/12/16 06:13:47;;;;;;;18.98;7.03;;;11.50;73.50;;;;;;6256180;28;20112;-73
2020/12/16 06:16:48;;;;;;;18.67;9.43;;;11.50;73.60;;;;;;6248430;28;20049;-72
2020/12/16 06:19:52;;;;;;;18.00;9.52;;;11.40;73.60;;;;;;6242764;28;20037;-73
2020/12/16 06:23:00;;;;;;;24.73;8.02;;;11.30;73.80;;;;;;6261119;28;20455;-72
2020/12/16 06:26:03;;;;;;;;;;;11.30;74.20;;;;;;6246791;28;20415;-72
2020/12/16 06:29:04;;;;;;;23.55;9.30;;;11.20;74.40;;;;;;6240718;28;19913;-72
2020/12/16 06:32:15;;;;;;;15.82;8.30;;;11.20;74.40;;;;;;6246294;28;20041;-74
2020/12/16 06:35:18;;;;;;;17.00;8.18;;;11.10;74.60;;;;;;6243732;28;20029;-73
2020/12/16 06:38:21;;;;;;;18.40;6.68;;;11.10;74.80;;;;;;6221873;28;20042;-73
2020/12/16 06:41:27;;;;;;;14.73;7.32;;;11.10;74.80;;;;;;6245920;28;20037;-72
2020/12/16 06:44:28;;;;;;;17.45;8.57;;;11.00;74.80;;;;;;6257919;28;20041;-72
2020/12/16 06:47:29;;;;;;;13.57;6.55;;;11.00;75.00;;;;;;6220775;28;20393;-73
2020/12/16 06:50:30;;;;;;;14.38;7.18;;;11.00;75.10;;;;;;6258497;28;20031;-73
2020/12/16 06:53:31;;;;;;;12.82;6.38;;;11.00;75.00;;;;;;6254661;28;20022;-74
2020/12/16 06:56:33;;;;;;;13.43;6.45;;;11.00;74.70;;;;;;6242835;28;20040;-73
2020/12/16 06:59:54;;;;;;;13.48;6.60;;;11.00;74.80;;;;;;6241681;28;20119;-73
2020/12/16 07:03:16;;;;;;;14.68;7.00;;;11.00;74.90;;;;;;6258996;28;20037;-73
2020/12/16 07:06:29;;;;;;;14.38;7.15;;;11.00;74.90;;;;;;6258720;28;20034;-72
2020/12/16 07:09:33;;;;;;;16.13;7.75;;;11.00;74.80;;;;;;6254978;28;20114;-73
2020/12/16 07:12:34;;;;;;;13.80;7.18;;;11.00;74.90;;;;;;6245053;28;20036;-73
2020/12/16 07:15:48;;;;;;;17.25;7.78;;;11.00;74.90;;;;;;6237788;28;20033;-73
2020/12/16 07:18:51;;;;;;;14.73;7.53;;;11.00;74.90;;;;;;6249192;28;20048;-72
2020/12/16 07:21:52;;;;;;;15.20;7.80;;;11.00;74.60;;;;;;6254533;28;20536;-74
2020/12/16 07:24:55;;;;;;;15.20;7.28;;;11.00;74.60;;;;;;6257716;28;20501;-73
2020/12/16 07:27:57;;;;;;;15.32;6.35;;;11.00;74.30;;;;;;6260242;28;20029;-73
2020/12/16 07:31:03;;;;;;;17.17;7.57;;;10.90;74.00;;;;;;6259559;28;20132;-72
2020/12/16 07:34:04;;;;;;;17.13;7.78;;;10.90;74.30;;;;;;6237961;28;20041;-73
2020/12/16 07:37:04;;;;;;;16.90;7.93;;;10.80;74.40;;;;;;6257620;28;20117;-74
2020/12/16 07:40:10;;;;;;;14.32;7.07;;;10.80;74.50;;;;;;6258170;28;20375;-72
2020/12/16 07:43:12;;;;;;;17.73;7.03;;;10.80;74.60;;;;;;6262362;28;20029;-74
2020/12/16 07:46:14;;;;;;;14.18;7.03;;;10.80;74.70;;;;;;6263964;28;20045;-73
2020/12/16 07:49:16;;;;;;;13.18;5.95;;;10.80;74.70;;;;;;6249343;28;20029;-73
2020/12/16 07:52:23;;;;;;;20.38;7.82;;;10.90;74.70;;;;;;6259593;28;20025;-73
2020/12/16 07:59:40;;;;;;;15.50;7.55;;;10.90;74.50;;;;;;6258576;28;20374;-73
2020/12/16 08:02:44;;;;;;;18.48;7.35;;;10.90;74.60;;;;;;6239493;28;20049;-73
2020/12/16 08:05:57;;;;;;;10.30;6.15;;;10.90;74.50;;;;;;6235683;28;20075;-73
2020/12/16 08:08:59;;;;;;;13.68;6.55;;;10.90;74.20;;;;;;6270412;28;20463;-73
2020/12/16 08:12:02;;;;;;;15.30;7.18;;;10.90;74.40;;;;;;6245657;28;20053;-73
2020/12/16 08:15:11;;;;;;;10.55;5.68;;;11.00;74.60;;;;;;6257240;28;20540;-73
2020/12/16 08:18:15;;;;;;;11.55;6.47;;;11.10;74.40;;;;;;6258425;28;20056;-73
2020/12/16 08:21:23;;;;;;;11.80;6.13;;;11.20;74.20;;;;;;6249715;28;20045;-73
2020/12/16 08:24:24;;;;;;;13.63;6.68;;;11.20;74.10;;;;;;6259075;28;20366;-73
2020/12/16 08:27:25;;;;;;;14.32;5.70;;;11.30;73.80;;;;;;6271325;28;20040;-73
2020/12/16 08:30:28;;;;;;;12.18;7.00;;;11.30;73.30;;;;;;6247907;28;20090;-73
2020/12/16 08:33:30;;;;;;;12.10;7.18;;;11.30;73.30;;;;;;6258778;28;20038;-73
2020/12/16 08:36:34;;;;;;;78.80;33.28;;;11.40;73.50;;;;;;6261880;28;20457;-73
2020/12/16 08:39:35;;;;;;;14.57;6.95;;;11.40;73.30;;;;;;6264309;28;20033;-73
2020/12/16 08:42:36;;;;;;;13.35;6.65;;;11.50;72.80;;;;;;6263976;28;20123;-72
2020/12/16 08:45:37;;;;;;;15.60;7.35;;;11.40;72.60;;;;;;6261098;28;20049;-72
2020/12/16 08:49:02;;;;;;;13.27;6.68;;;11.40;72.50;;;;;;6260742;28;20470;-73
2020/12/16 08:52:04;;;;;;;14.57;7.97;;;11.50;72.50;;;;;;6257866;28;20056;-72
2020/12/16 08:55:19;;;;;;;17.08;7.90;;;11.50;72.30;;;;;;6263032;28;20470;-72
2020/12/16 08:58:20;;;;;;;17.02;6.97;;;11.60;72.20;;;;;;6260951;28;20465;-73
2020/12/16 09:01:22;;;;;;;12.52;6.55;;;11.70;72.10;;;;;;6256803;28;20044;-72
2020/12/16 09:04:29;;;;;;;19.30;8.02;;;11.80;71.90;;;;;;6261918;28;20071;-72
2020/12/16 09:07:31;;;;;;;15.02;7.18;;;11.90;71.60;;;;;;6262679;28;20470;-72
2020/12/16 09:10:35;;;;;;;20.30;7.47;;;11.90;71.20;;;;;;6260321;28;20045;-74
2020/12/16 09:13:36;;;;;;;20.05;9.25;;;12.00;70.60;;;;;;6251370;28;20034;-72
2020/12/16 09:16:37;;;;;;;15.35;7.68;;;12.00;70.20;;;;;;6260428;28;20033;-73
2020/12/16 09:19:38;;;;;;;22.17;7.95;;;12.00;70.20;;;;;;6258677;28;20033;-73
2020/12/16 09:26:55;;;;;;;13.02;5.72;;;12.10;70.40;;;;;;6259243;28;20049;-72
2020/12/16 09:29:56;;;;;;;14.43;6.55;;;12.20;70.10;;;;;;6257841;28;20405;-73
2020/12/16 09:32:57;;;;;;;15.93;7.63;;;12.10;69.80;;;;;;6254823;28;20075;-74
2020/12/16 09:35:58;;;;;;;11.93;6.38;;;12.10;69.70;;;;;;6257437;28;20076;-73
2020/12/16 09:39:02;;;;;;;25.95;6.85;;;12.10;69.80;;;;;;6258413;28;20050;-73
2020/12/16 09:42:09;;;;;;;14.40;6.65;;;12.10;70.00;;;;;;6259858;28;20368;-73
2020/12/16 09:45:20;;;;;;;18.20;7.47;;;12.10;70.10;;;;;;6231523;28;765612;-72
2020/12/16 09:48:27;;;;;;;15.20;6.22;;;12.20;70.10;;;;;;6259647;28;20048;-72
2020/12/16 09:51:35;;;;;;;15.90;6.88;;;12.20;70.10;;;;;;6262655;28;20033;-74
2020/12/16 09:54:36;;;;;;;12.90;5.82;;;12.30;70.50;;;;;;6256576;28;20484;-73
2020/12/16 09:57:38;;;;;;;18.73;8.13;;;12.40;70.40;;;;;;6242702;28;20029;-73
2020/12/16 10:00:42;;;;;;;16.05;7.25;;;12.50;70.30;;;;;;6257797;28;22278;-73
2020/12/16 10:03:43;;;;;;;44.47;18.20;;;12.60;70.20;;;;;;6252390;28;20049;-74
2020/12/16 10:06:44;;;;;;;19.75;10.93;;;12.80;70.90;;;;;;6261630;28;20067;-72
2020/12/16 10:09:52;;;;;;;17.23;8.80;;;13.00;69.60;;;;;;6272375;28;20083;-72
2020/12/16 10:12:53;;;;;;;14.02;6.68;;;13.20;68.90;;;;;;6256295;28;20040;-73
2020/12/16 10:15:54;;;;;;;22.15;10.23;;;13.40;68.90;;;;;;6246678;28;20065;-73
2020/12/16 10:18:55;;;;;;;29.88;13.25;;;13.60;68.00;;;;;;6256098;28;20095;-73
2020/12/16 10:21:57;;;;;;;24.05;13.32;;;13.70;67.60;;;;;;6258355;28;20033;-73
2020/12/16 10:24:58;;;;;;;27.75;13.02;;;13.80;66.90;;;;;;6255780;28;20359;-73
2020/12/16 10:27:59;;;;;;;21.52;6.75;;;14.00;67.00;;;;;;6261578;28;20052;-74
2020/12/16 10:31:00;;;;;;;21.55;10.23;;;14.10;66.40;;;;;;6259669;28;20465;-74
2020/12/16 10:34:01;;;;;;;14.50;7.18;;;14.30;65.80;;;;;;6237558;28;20389;-74
2020/12/16 10:37:02;;;;;;;9.95;5.28;;;14.50;65.00;;;;;;6254960;28;20052;-73
2020/12/16 10:40:04;;;;;;;15.52;6.60;;;14.60;64.00;;;;;;6252935;28;20056;-73
2020/12/16 10:43:05;;;;;;;10.18;5.85;;;14.80;63.40;;;;;;6258642;28;20041;-73
2020/12/16 10:46:09;;;;;;;13.25;5.50;;;15.10;62.80;;;;;;6262613;28;20136;-72
2020/12/16 10:49:10;;;;;;;12.18;5.40;;;15.20;61.80;;;;;;6243569;28;20434;-74
2020/12/16 10:52:13;;;;;;;7.72;5.00;;;15.40;61.90;;;;;;6255575;28;20108;-74
2020/12/16 10:55:14;;;;;;;15.23;5.45;;;15.60;61.40;;;;;;6260471;28;20419;-73
2020/12/16 10:58:14;;;;;;;11.00;5.03;;;16.00;60.10;;;;;;6257134;28;20061;-73
2020/12/16 11:01:15;;;;;;;10.80;5.78;;;16.30;58.80;;;;;;6253083;28;20033;-73
2020/12/16 11:04:16;;;;;;;20.63;8.73;;;16.60;58.40;;;;;;6256928;28;20037;-73
2020/12/16 11:07:17;;;;;;;17.20;7.80;;;17.00;57.60;;;;;;6248456;28;20037;-74
2020/12/16 11:10:18;;;;;;;30.92;13.93;;;17.20;56.50;;;;;;6254689;28;20048;-73
2020/12/16 11:13:19;;;;;;;56.85;22.40;;;17.40;56.30;;;;;;6246611;28;20037;-73
2020/12/16 11:16:27;;;;;;;24.23;10.38;;;17.80;55.50;;;;;;6262575;28;20063;-74
2020/12/16 11:19:28;;;;;;;;;;;18.00;54.60;;;;;;6224941;28;20113;-74
2020/12/16 11:22:29;;;;;;;14.05;6.15;;;18.40;54.00;;;;;;6254131;28;20261;-73
2020/12/16 11:25:30;;;;;;;10.60;4.43;;;18.70;53.10;;;;;;6256299;28;20104;-73
2020/12/16 11:28:31;;;;;;;14.82;5.78;;;19.00;53.00;;;;;;6252341;28;20371;-73
2020/12/16 11:31:38;;;;;;;9.77;4.40;;;19.40;51.90;;;;;;6255907;28;20120;-74
2020/12/16 11:34:39;;;;;;;11.43;5.88;;;19.60;50.00;;;;;;6256005;28;20037;-74
2020/12/16 11:37:43;;;;;;;7.95;4.15;;;19.40;50.20;;;;;;6256048;28;20115;-73
2020/12/16 11:40:44;;;;;;;6.78;3.83;;;19.10;51.10;;;;;;6253424;28;20040;-73
2020/12/16 11:43:45;;;;;;;7.95;4.05;;;18.70;51.40;;;;;;6254593;28;20123;-75
2020/12/16 11:46:47;;;;;;;7.28;3.63;;;18.30;52.00;;;;;;6239989;28;20140;-74
2020/12/16 11:49:48;;;;;;;9.93;4.88;;;17.90;52.90;;;;;;6249128;28;20466;-73
2020/12/16 11:52:48;;;;;;;6.57;3.25;;;17.60;53.30;;;;;;6255075;28;20049;-73
2020/12/16 11:55:49;;;;;;;8.98;2.97;;;17.40;54.10;;;;;;6255095;28;20116;-73
2020/12/16 11:58:51;;;;;;;9.25;2.70;;;17.20;54.30;;;;;;6254575;28;20095;-72
2020/12/16 12:02:02;;;;;;;5.75;3.20;;;17.00;54.90;;;;;;6256161;28;20454;-73
2020/12/16 12:05:03;;;;;;;6.28;3.17;;;16.80;55.30;;;;;;6241554;28;20050;-73
2020/12/16 12:08:04;;;;;;;5.20;2.60;;;16.70;55.60;;;;;;6257911;28;20140;-73
2020/12/16 12:11:06;;;;;;;44.63;16.35;;;16.60;55.90;;;;;;6258377;28;20045;-74
2020/12/16 12:14:07;;;;;;;7.30;3.55;;;16.50;56.00;;;;;;6259885;28;20041;-73
2020/12/16 12:17:08;;;;;;;8.00;2.80;;;16.50;56.30;;;;;;6257336;28;20478;-74
2020/12/16 12:20:09;;;;;;;5.65;3.05;;;16.50;56.20;;;;;;6256196;28;20029;-73
2020/12/16 12:23:10;;;;;;;3.95;2.50;;;16.40;56.20;;;;;;6230369;28;20514;-73
2020/12/16 12:26:11;;;;;;;4.78;2.45;;;16.40;56.40;;;;;;6219681;28;20041;-74
2020/12/16 12:29:12;;;;;;;7.45;3.03;;;16.40;56.40;;;;;;6261873;28;20078;-73
2020/12/16 12:32:14;;;;;;;6.30;2.70;;;16.40;56.40;;;;;;6255461;28;20462;-73
2020/12/16 12:35:16;;;;;;;4.47;2.33;;;16.40;56.50;;;;;;6257071;28;20049;-73
2020/12/16 12:38:17;;;;;;;9.52;3.47;;;16.40;56.60;;;;;;6260806;28;20029;-74
2020/12/16 12:41:18;;;;;;;5.05;2.80;;;16.50;56.70;;;;;;6232974;28;20529;-74
2020/12/16 12:44:20;;;;;;;8.50;3.20;;;16.60;56.80;;;;;;6245552;28;20069;-72
2020/12/16 12:47:21;;;;;;;7.65;3.55;;;16.70;56.80;;;;;;6258914;28;20039;-74
2020/12/16 12:50:21;;;;;;;8.90;3.97;;;16.70;56.70;;;;;;6248220;28;20034;-74
2020/12/16 12:53:22;;;;;;;7.60;4.25;;;16.70;56.70;;;;;;6258312;28;20319;-74
2020/12/16 12:56:24;;;;;;;9.32;4.13;;;16.80;56.70;;;;;;6260558;28;21311;-73
2020/12/16 12:59:25;;;;;;;7.03;3.67;;;16.80;56.50;;;;;;6259129;28;20486;-74
2020/12/16 13:02:31;;;;;;;9.88;4.53;;;16.80;56.50;;;;;;6238782;28;20033;-73
2020/12/16 13:05:32;;;;;;;18.00;5.47;;;16.70;56.70;;;;;;6259756;28;20056;-73
2020/12/16 13:08:33;;;;;;;8.80;4.82;;;16.60;56.90;;;;;;6259484;28;20044;-73
2020/12/16 13:11:33;;;;;;;14.07;5.47;;;16.50;57.20;;;;;;6234034;28;20037;-72
2020/12/16 13:14:37;;;;;;;9.45;5.32;;;16.40;57.40;;;;;;6207158;28;20525;-73
2020/12/16 13:17:38;;;;;;;9.38;5.15;;;16.20;57.80;;;;;;6241698;28;20151;-74
2020/12/16 13:20:39;;;;;;;11.35;5.35;;;16.20;58.00;;;;;;6257300;28;20039;-73
2020/12/16 13:23:41;;;;;;;7.72;4.55;;;16.10;58.20;;;;;;6260254;28;20043;-74
2020/12/16 13:26:43;;;;;;;8.07;4.53;;;16.10;58.30;;;;;;6251722;28;20076;-74
2020/12/16 13:29:44;;;;;;;9.65;4.30;;;16.10;58.40;;;;;;6259463;28;20378;-73
2020/12/16 13:32:45;;;;;;;9.10;4.55;;;16.10;58.40;;;;;;6260448;28;20033;-73
2020/12/16 13:35:47;;;;;;;8.65;4.18;;;16.00;58.50;;;;;;6257650;28;20518;-73
2020/12/16 13:38:48;;;;;;;7.80;4.10;;;16.00;58.70;;;;;;6257523;28;20057;-73
2020/12/16 13:41:50;;;;;;;10.45;4.72;;;16.00;58.70;;;;;;6258444;28;20045;-73
2020/12/16 13:44:50;;;;;;;7.90;4.40;;;16.00;58.80;;;;;;6245078;28;20052;-73
2020/12/16 13:47:52;;;;;;;11.63;4.15;;;15.90;58.80;;;;;;6237645;28;20029;-73
2020/12/16 13:50:53;;;;;;;8.05;4.15;;;15.90;59.00;;;;;;6237130;28;20127;-73
2020/12/16 13:53:55;;;;;;;8.98;4.60;;;15.90;59.80;;;;;;6248277;28;20036;-73
2020/12/16 13:56:56;;;;;;;7.35;3.90;;;15.80;59.20;;;;;;6243162;28;20033;-74
2020/12/16 13:59:57;;;;;;;14.93;4.35;;;15.90;59.20;;;;;;6254572;28;20037;-73
2020/12/16 14:02:59;;;;;;;10.88;4.95;;;15.90;59.20;;;;;;6259997;28;20390;-74
2020/12/16 14:06:00;;;;;;;11.68;4.05;;;15.90;59.20;;;;;;6256028;28;20041;-73
2020/12/16 14:09:01;;;;;;;12.88;5.10;;;15.80;59.30;;;;;;6253802;28;20362;-73
2020/12/16 14:12:03;;;;;;;6.55;4.03;;;15.80;59.40;;;;;;6257034;28;20029;-73
2020/12/16 14:15:04;;;;;;;10.35;4.60;;;15.80;59.60;;;;;;6244654;28;20112;-74
2020/12/16 14:18:05;;;;;;;8.55;3.83;;;15.90;59.70;;;;;;6243665;28;20038;-74
2020/12/16 14:21:07;;;;;;;8.30;4.95;;;15.80;59.70;;;;;;6257368;28;20040;-74
2020/12/16 14:24:08;;;;;;;11.20;4.30;;;15.80;59.70;;;;;;6262952;28;20037;-73
2020/12/16 14:27:09;;;;;;;8.02;4.60;;;15.70;59.80;;;;;;6258192;28;20455;-73
2020/12/16 14:30:10;;;;;;;7.85;4.28;;;15.70;60.00;;;;;;6257630;28;20053;-73
2020/12/16 14:33:11;;;;;;;14.25;4.90;;;15.60;60.20;;;;;;6253426;28;20441;-73
2020/12/16 14:36:12;;;;;;;12.82;7.05;;;15.60;60.30;;;;;;6259538;28;20044;-74
2020/12/16 14:39:13;;;;;;;13.60;5.47;;;15.70;60.30;;;;;;6232800;28;20115;-73
2020/12/16 14:42:16;;;;;;;12.68;4.55;;;15.70;60.40;;;;;;6230520;28;20037;-73
2020/12/16 14:45:16;;;;;;;9.82;5.18;;;15.60;60.30;;;;;;6253822;28;20049;-73
2020/12/16 14:48:17;;;;;;;9.05;4.40;;;15.60;60.50;;;;;;6253820;28;20118;-73
2020/12/16 14:51:18;;;;;;;8.18;4.93;;;15.70;61.50;;;;;;6257206;28;20041;-73
2020/12/16 14:54:19;;;;;;;8.35;4.38;;;15.60;60.70;;;;;;6255203;28;20178;-73
2020/12/16 14:57:24;;;;;;;9.05;4.18;;;15.60;60.80;;;;;;6258009;28;20041;-73
2020/12/16 15:00:25;;;;;;;8.77;4.35;;;15.50;60.80;;;;;;6255028;28;20045;-73
2020/12/16 15:03:25;;;;;;;7.93;4.82;;;15.50;60.90;;;;;;6255659;28;20036;-73
2020/12/16 15:06:27;;;;;;;9.65;4.45;;;15.40;61.20;;;;;;6257266;28;20517;-73
2020/12/16 15:09:27;;;;;;;6.78;4.57;;;15.30;61.40;;;;;;6256285;28;20109;-74
2020/12/16 15:12:29;;;;;;;9.52;4.85;;;15.30;61.70;;;;;;6257729;28;20477;-73
2020/12/16 15:15:29;;;;;;;14.85;5.68;;;15.20;61.90;;;;;;6256037;28;20029;-73
2020/12/16 15:18:30;;;;;;;9.68;4.70;;;15.20;62.10;;;;;;6256868;28;20025;-73
2020/12/16 15:21:31;;;;;;;10.15;5.40;;;15.20;62.20;;;;;;6258919;28;20355;-73
2020/12/16 15:24:32;;;;;;;7.55;4.53;;;15.20;62.40;;;;;;6233305;28;20502;-74
2020/12/16 15:27:38;;;;;;;11.35;4.85;;;15.20;62.40;;;;;;6216994;28;20062;-74
2020/12/16 15:30:39;;;;;;;7.93;4.60;;;15.10;62.50;;;;;;6236289;28;20045;-72
2020/12/16 15:33:40;;;;;;;9.77;4.53;;;15.10;62.70;;;;;;6254166;28;20057;-73
2020/12/16 15:36:41;;;;;;;8.85;4.82;;;15.00;62.90;;;;;;6230783;28;20089;-73
2020/12/16 15:39:42;;;;;;;13.02;5.47;;;15.00;63.20;;;;;;6246951;28;20049;-74
2020/12/16 15:43:27;;;;;;;8.80;4.60;;;15.00;63.20;;;;;;6243685;28;20377;-72
2020/12/16 15:46:28;;;;;;;15.10;4.53;;;15.00;63.00;;;;;;6234665;28;20486;-73
2020/12/16 15:49:29;;;;;;;11.60;5.07;;;15.00;62.80;;;;;;6233943;28;20091;-73
2020/12/16 15:52:29;;;;;;;6.90;4.18;;;15.00;62.30;;;;;;6231535;28;20049;-73
2020/12/16 15:55:30;;;;;;;11.07;4.82;;;15.00;62.10;;;;;;6233015;28;20048;-73
2020/12/16 15:58:31;;;;;;;6.47;3.55;;;15.00;62.00;;;;;;6233012;28;20041;-73